sensor_id;sensor_type;location;lat;lon;timestamp;P1;durP1;ratioP1;P2;durP2;ratioP2
11514;SDS011;5814;41.936;25.556;2023-04-24T00:01:30;7.70;;;7.10;;
11514;SDS011;5814;41.936;25.556;2023-04-24T00:03:58;8.20;;;7.40;;
11514;SDS011;5814;41.936;25.556;2023-04-24T00:06:25;8.20;;;7.50;;
11514;SDS011;5814;41.936;25.556;2023-04-24T00:08:52;8.27;;;7.60;;
11514;SDS011;5814;41.936;25.556;2023-04-24T00:11:19;8.67;;;7.70;;
11514;SDS011;5814;41.936;25.556;2023-04-24T00:13:46;8.43;;;7.63;;
11514;SDS011;5814;41.936;25.556;2023-04-24T00:16:13;7.83;;;7.33;;
11514;SDS011;5814;41.936;25.556;2023-04-24T00:18:41;8.33;;;7.50;;
11514;SDS011;5814;41.936;25.556;2023-04-24T00:21:08;9.53;;;8.63;;
11514;SDS011;5814;41.936;25.556;2023-04-24T00:23:35;8.57;;;7.97;;
11514;SDS011;5814;41.936;25.556;2023-04-24T00:26:02;9.73;;;7.97;;
11514;SDS011;5814;41.936;25.556;2023-04-24T00:28:29;8.47;;;7.70;;
11514;SDS011;5814;41.936;25.556;2023-04-24T00:30:56;8.23;;;7.53;;
11514;SDS011;5814;41.936;25.556;2023-04-24T00:33:23;8.17;;;7.47;;
11514;SDS011;5814;41.936;25.556;2023-04-24T00:35:51;8.93;;;7.40;;
11514;SDS011;5814;41.936;25.556;2023-04-24T00:38:18;8.60;;;7.87;;
11514;SDS011;5814;41.936;25.556;2023-04-24T00:40:45;9.00;;;8.17;;
11514;SDS011;5814;41.936;25.556;2023-04-24T00:43:12;8.90;;;8.20;;
11514;SDS011;5814;41.936;25.556;2023-04-24T00:45:39;9.03;;;8.17;;
11514;SDS011;5814;41.936;25.556;2023-04-24T00:48:07;9.40;;;8.50;;
11514;SDS011;5814;41.936;25.556;2023-04-24T00:50:35;8.40;;;7.80;;
11514;SDS011;5814;41.936;25.556;2023-04-24T00:53:01;9.80;;;9.00;;
11514;SDS011;5814;41.936;25.556;2023-04-24T00:55:28;9.77;;;8.77;;
11514;SDS011;5814;41.936;25.556;2023-04-24T00:57:55;10.00;;;9.00;;
11514;SDS011;5814;41.936;25.556;2023-04-24T01:00:22;10.17;;;9.37;;
11514;SDS011;5814;41.936;25.556;2023-04-24T01:02:50;9.57;;;8.87;;
11514;SDS011;5814;41.936;25.556;2023-04-24T01:05:17;11.70;;;8.67;;
11514;SDS011;5814;41.936;25.556;2023-04-24T01:07:44;9.27;;;8.47;;
11514;SDS011;5814;41.936;25.556;2023-04-24T01:10:11;8.37;;;7.67;;
11514;SDS011;5814;41.936;25.556;2023-04-24T01:12:38;9.10;;;8.20;;
11514;SDS011;5814;41.936;25.556;2023-04-24T01:15:06;8.87;;;8.07;;
11514;SDS011;5814;41.936;25.556;2023-04-24T01:17:33;9.03;;;8.20;;
11514;SDS011;5814;41.936;25.556;2023-04-24T01:20:01;9.03;;;8.23;;
11514;SDS011;5814;41.936;25.556;2023-04-24T01:22:28;10.87;;;8.37;;
11514;SDS011;5814;41.936;25.556;2023-04-24T01:24:55;8.73;;;7.83;;
11514;SDS011;5814;41.936;25.556;2023-04-24T01:27:22;9.17;;;8.37;;
11514;SDS011;5814;41.936;25.556;2023-04-24T01:29:49;9.20;;;8.30;;
11514;SDS011;5814;41.936;25.556;2023-04-24T01:32:17;8.53;;;7.83;;
11514;SDS011;5814;41.936;25.556;2023-04-24T01:34:44;9.40;;;8.50;;
11514;SDS011;5814;41.936;25.556;2023-04-24T01:37:11;9.20;;;8.30;;
11514;SDS011;5814;41.936;25.556;2023-04-24T01:39:38;14.00;;;8.50;;
11514;SDS011;5814;41.936;25.556;2023-04-24T01:42:05;8.80;;;8.20;;
11514;SDS011;5814;41.936;25.556;2023-04-24T01:44:33;8.57;;;7.97;;
11514;SDS011;5814;41.936;25.556;2023-04-24T01:47:00;8.77;;;8.17;;
11514;SDS011;5814;41.936;25.556;2023-04-24T01:49:27;8.47;;;7.77;;
11514;SDS011;5814;41.936;25.556;2023-04-24T01:51:54;9.07;;;8.47;;
11514;SDS011;5814;41.936;25.556;2023-04-24T01:54:21;11.20;;;8.60;;
11514;SDS011;5814;41.936;25.556;2023-04-24T01:56:48;9.40;;;8.60;;
11514;SDS011;5814;41.936;25.556;2023-04-24T01:59:15;10.30;;;8.97;;
11514;SDS011;5814;41.936;25.556;2023-04-24T02:01:42;9.63;;;8.83;;
11514;SDS011;5814;41.936;25.556;2023-04-24T02:04:10;9.50;;;8.80;;
11514;SDS011;5814;41.936;25.556;2023-04-24T02:06:37;9.63;;;8.93;;
11514;SDS011;5814;41.936;25.556;2023-04-24T02:09:04;10.20;;;9.40;;
11514;SDS011;5814;41.936;25.556;2023-04-24T02:11:31;11.23;;;9.03;;
11514;SDS011;5814;41.936;25.556;2023-04-24T02:13:58;12.63;;;11.33;;
11514;SDS011;5814;41.936;25.556;2023-04-24T02:16:25;11.70;;;10.70;;
11514;SDS011;5814;41.936;25.556;2023-04-24T02:18:52;11.93;;;10.70;;
11514;SDS011;5814;41.936;25.556;2023-04-24T02:21:20;12.53;;;11.60;;
11514;SDS011;5814;41.936;25.556;2023-04-24T02:23:47;11.63;;;10.83;;
11514;SDS011;5814;41.936;25.556;2023-04-24T02:26:14;10.83;;;9.97;;
11514;SDS011;5814;41.936;25.556;2023-04-24T02:28:41;12.77;;;11.77;;
11514;SDS011;5814;41.936;25.556;2023-04-24T02:31:08;13.37;;;12.10;;
11514;SDS011;5814;41.936;25.556;2023-04-24T02:33:35;13.20;;;12.10;;
11514;SDS011;5814;41.936;25.556;2023-04-24T02:36:03;11.03;;;10.13;;
11514;SDS011;5814;41.936;25.556;2023-04-24T02:38:30;17.10;;;15.57;;
11514;SDS011;5814;41.936;25.556;2023-04-24T02:40:57;13.10;;;12.13;;
11514;SDS011;5814;41.936;25.556;2023-04-24T02:43:24;13.07;;;11.87;;
11514;SDS011;5814;41.936;25.556;2023-04-24T02:45:52;13.80;;;12.80;;
11514;SDS011;5814;41.936;25.556;2023-04-24T02:48:19;11.73;;;10.53;;
11514;SDS011;5814;41.936;25.556;2023-04-24T02:50:46;15.47;;;14.10;;
11514;SDS011;5814;41.936;25.556;2023-04-24T02:53:13;10.37;;;9.50;;
11514;SDS011;5814;41.936;25.556;2023-04-24T02:55:41;9.93;;;9.23;;
11514;SDS011;5814;41.936;25.556;2023-04-24T02:58:08;9.30;;;8.67;;
11514;SDS011;5814;41.936;25.556;2023-04-24T03:00:35;8.83;;;8.13;;
11514;SDS011;5814;41.936;25.556;2023-04-24T03:03:02;9.30;;;8.60;;
11514;SDS011;5814;41.936;25.556;2023-04-24T03:05:30;10.67;;;9.77;;
11514;SDS011;5814;41.936;25.556;2023-04-24T03:07:57;10.40;;;9.50;;
11514;SDS011;5814;41.936;25.556;2023-04-24T03:10:24;10.30;;;9.70;;
11514;SDS011;5814;41.936;25.556;2023-04-24T03:12:51;9.90;;;9.20;;
11514;SDS011;5814;41.936;25.556;2023-04-24T03:15:18;10.97;;;10.07;;
11514;SDS011;5814;41.936;25.556;2023-04-24T03:17:45;10.97;;;10.07;;
11514;SDS011;5814;41.936;25.556;2023-04-24T03:20:13;10.47;;;9.67;;
11514;SDS011;5814;41.936;25.556;2023-04-24T03:22:40;11.17;;;10.30;;
11514;SDS011;5814;41.936;25.556;2023-04-24T03:25:07;13.57;;;12.23;;
11514;SDS011;5814;41.936;25.556;2023-04-24T03:27:35;12.83;;;11.57;;
11514;SDS011;5814;41.936;25.556;2023-04-24T03:30:03;10.97;;;9.80;;
11514;SDS011;5814;41.936;25.556;2023-04-24T03:32:31;26.33;;;23.83;;
11514;SDS011;5814;41.936;25.556;2023-04-24T03:34:58;19.50;;;18.00;;
11514;SDS011;5814;41.936;25.556;2023-04-24T03:37:25;24.27;;;22.20;;
11514;SDS011;5814;41.936;25.556;2023-04-24T03:39:52;15.93;;;14.63;;
11514;SDS011;5814;41.936;25.556;2023-04-24T03:42:20;12.90;;;11.80;;
11514;SDS011;5814;41.936;25.556;2023-04-24T03:44:47;14.73;;;13.23;;
11514;SDS011;5814;41.936;25.556;2023-04-24T03:47:14;11.70;;;10.77;;
11514;SDS011;5814;41.936;25.556;2023-04-24T03:49:41;12.47;;;11.20;;
11514;SDS011;5814;41.936;25.556;2023-04-24T03:52:08;14.80;;;13.37;;
11514;SDS011;5814;41.936;25.556;2023-04-24T03:54:35;17.73;;;16.30;;
11514;SDS011;5814;41.936;25.556;2023-04-24T03:57:02;22.53;;;20.73;;
11514;SDS011;5814;41.936;25.556;2023-04-24T03:59:30;16.87;;;15.77;;
11514;SDS011;5814;41.936;25.556;2023-04-24T04:01:57;12.53;;;11.80;;
11514;SDS011;5814;41.936;25.556;2023-04-24T04:04:24;20.43;;;18.70;;
11514;SDS011;5814;41.936;25.556;2023-04-24T04:06:51;14.10;;;12.83;;
11514;SDS011;5814;41.936;25.556;2023-04-24T04:09:18;12.03;;;11.30;;
11514;SDS011;5814;41.936;25.556;2023-04-24T04:11:45;20.00;;;17.80;;
11514;SDS011;5814;41.936;25.556;2023-04-24T04:14:13;14.37;;;13.30;;
11514;SDS011;5814;41.936;25.556;2023-04-24T04:16:40;12.50;;;11.40;;
11514;SDS011;5814;41.936;25.556;2023-04-24T04:19:07;11.80;;;10.80;;
11514;SDS011;5814;41.936;25.556;2023-04-24T04:21:34;10.93;;;9.97;;
11514;SDS011;5814;41.936;25.556;2023-04-24T04:24:01;10.33;;;9.40;;
11514;SDS011;5814;41.936;25.556;2023-04-24T04:26:29;14.00;;;12.67;;
11514;SDS011;5814;41.936;25.556;2023-04-24T04:28:56;14.83;;;13.53;;
11514;SDS011;5814;41.936;25.556;2023-04-24T04:31:23;19.80;;;15.60;;
11514;SDS011;5814;41.936;25.556;2023-04-24T04:33:50;20.03;;;15.30;;
11514;SDS011;5814;41.936;25.556;2023-04-24T04:36:17;24.93;;;21.20;;
11514;SDS011;5814;41.936;25.556;2023-04-24T04:38:44;15.63;;;14.20;;
11514;SDS011;5814;41.936;25.556;2023-04-24T04:41:12;20.77;;;18.80;;
11514;SDS011;5814;41.936;25.556;2023-04-24T04:43:39;17.67;;;15.90;;
11514;SDS011;5814;41.936;25.556;2023-04-24T04:46:06;13.87;;;12.67;;
11514;SDS011;5814;41.936;25.556;2023-04-24T04:48:33;14.97;;;13.80;;
11514;SDS011;5814;41.936;25.556;2023-04-24T04:51:00;17.50;;;16.00;;
11514;SDS011;5814;41.936;25.556;2023-04-24T04:53:27;18.07;;;15.30;;
11514;SDS011;5814;41.936;25.556;2023-04-24T04:55:55;14.67;;;13.40;;
11514;SDS011;5814;41.936;25.556;2023-04-24T04:58:22;21.83;;;19.90;;
11514;SDS011;5814;41.936;25.556;2023-04-24T05:00:49;16.93;;;15.60;;
11514;SDS011;5814;41.936;25.556;2023-04-24T05:03:16;12.67;;;11.30;;
11514;SDS011;5814;41.936;25.556;2023-04-24T05:05:43;15.13;;;13.53;;
11514;SDS011;5814;41.936;25.556;2023-04-24T05:08:10;13.97;;;12.93;;
11514;SDS011;5814;41.936;25.556;2023-04-24T05:10:38;15.07;;;13.70;;
11514;SDS011;5814;41.936;25.556;2023-04-24T05:13:05;12.37;;;11.20;;
11514;SDS011;5814;41.936;25.556;2023-04-24T05:15:32;20.57;;;18.67;;
11514;SDS011;5814;41.936;25.556;2023-04-24T05:17:59;14.37;;;13.27;;
11514;SDS011;5814;41.936;25.556;2023-04-24T05:20:26;14.00;;;13.00;;
11514;SDS011;5814;41.936;25.556;2023-04-24T05:22:53;15.67;;;14.17;;
11514;SDS011;5814;41.936;25.556;2023-04-24T05:25:21;22.53;;;15.07;;
11514;SDS011;5814;41.936;25.556;2023-04-24T05:27:48;23.47;;;19.73;;
11514;SDS011;5814;41.936;25.556;2023-04-24T05:30:15;12.87;;;11.63;;
11514;SDS011;5814;41.936;25.556;2023-04-24T05:32:42;11.60;;;10.70;;
11514;SDS011;5814;41.936;25.556;2023-04-24T05:35:09;14.50;;;13.00;;
11514;SDS011;5814;41.936;25.556;2023-04-24T05:37:36;13.33;;;11.90;;
11514;SDS011;5814;41.936;25.556;2023-04-24T05:40:04;11.50;;;10.50;;
11514;SDS011;5814;41.936;25.556;2023-04-24T05:42:32;11.23;;;10.23;;
11514;SDS011;5814;41.936;25.556;2023-04-24T05:44:59;28.07;;;19.33;;
11514;SDS011;5814;41.936;25.556;2023-04-24T05:47:26;22.47;;;20.37;;
11514;SDS011;5814;41.936;25.556;2023-04-24T05:49:53;12.83;;;11.70;;
11514;SDS011;5814;41.936;25.556;2023-04-24T05:52:21;12.00;;;10.77;;
11514;SDS011;5814;41.936;25.556;2023-04-24T05:54:48;15.67;;;11.73;;
11514;SDS011;5814;41.936;25.556;2023-04-24T05:57:15;12.30;;;11.13;;
11514;SDS011;5814;41.936;25.556;2023-04-24T05:59:42;17.13;;;15.37;;
11514;SDS011;5814;41.936;25.556;2023-04-24T06:02:09;20.37;;;13.73;;
11514;SDS011;5814;41.936;25.556;2023-04-24T06:04:36;11.13;;;10.00;;
11514;SDS011;5814;41.936;25.556;2023-04-24T06:07:04;14.10;;;10.57;;
11514;SDS011;5814;41.936;25.556;2023-04-24T06:09:31;17.40;;;11.40;;
11514;SDS011;5814;41.936;25.556;2023-04-24T06:11:58;15.80;;;11.57;;
11514;SDS011;5814;41.936;25.556;2023-04-24T06:14:25;11.27;;;10.20;;
11514;SDS011;5814;41.936;25.556;2023-04-24T06:16:52;12.53;;;11.27;;
11514;SDS011;5814;41.936;25.556;2023-04-24T06:19:20;14.77;;;11.03;;
11514;SDS011;5814;41.936;25.556;2023-04-24T06:21:47;17.83;;;11.30;;
11514;SDS011;5814;41.936;25.556;2023-04-24T06:24:14;12.40;;;11.20;;
11514;SDS011;5814;41.936;25.556;2023-04-24T06:26:41;14.10;;;11.87;;
11514;SDS011;5814;41.936;25.556;2023-04-24T06:29:08;10.53;;;9.73;;
11514;SDS011;5814;41.936;25.556;2023-04-24T06:31:35;10.93;;;9.80;;
11514;SDS011;5814;41.936;25.556;2023-04-24T06:34:03;9.90;;;9.15;;
11514;SDS011;5814;41.936;25.556;2023-04-24T06:36:30;10.40;;;9.40;;
11514;SDS011;5814;41.936;25.556;2023-04-24T06:38:57;10.27;;;9.23;;
11514;SDS011;5814;41.936;25.556;2023-04-24T06:41:24;10.07;;;9.13;;
11514;SDS011;5814;41.936;25.556;2023-04-24T06:43:51;10.90;;;9.98;;
11514;SDS011;5814;41.936;25.556;2023-04-24T06:46:18;14.00;;;10.27;;
11514;SDS011;5814;41.936;25.556;2023-04-24T06:48:46;10.32;;;9.25;;
11514;SDS011;5814;41.936;25.556;2023-04-24T06:51:13;9.93;;;9.02;;
11514;SDS011;5814;41.936;25.556;2023-04-24T06:53:40;10.60;;;9.50;;
11514;SDS011;5814;41.936;25.556;2023-04-24T06:56:07;9.43;;;8.52;;
11514;SDS011;5814;41.936;25.556;2023-04-24T06:58:34;9.27;;;8.48;;
11514;SDS011;5814;41.936;25.556;2023-04-24T07:01:01;10.10;;;9.20;;
11514;SDS011;5814;41.936;25.556;2023-04-24T07:03:29;8.50;;;7.90;;
11514;SDS011;5814;41.936;25.556;2023-04-24T07:05:56;9.07;;;8.23;;
11514;SDS011;5814;41.936;25.556;2023-04-24T07:08:23;8.83;;;8.10;;
11514;SDS011;5814;41.936;25.556;2023-04-24T07:10:50;9.37;;;8.67;;
11514;SDS011;5814;41.936;25.556;2023-04-24T07:13:17;10.43;;;8.55;;
11514;SDS011;5814;41.936;25.556;2023-04-24T07:15:44;9.00;;;7.55;;
11514;SDS011;5814;41.936;25.556;2023-04-24T07:18:12;9.18;;;8.30;;
11514;SDS011;5814;41.936;25.556;2023-04-24T07:20:39;10.18;;;8.88;;
11514;SDS011;5814;41.936;25.556;2023-04-24T07:23:06;8.80;;;8.20;;
11514;SDS011;5814;41.936;25.556;2023-04-24T07:25:33;9.13;;;8.43;;
11514;SDS011;5814;41.936;25.556;2023-04-24T07:28:00;10.23;;;9.35;;
11514;SDS011;5814;41.936;25.556;2023-04-24T07:30:27;10.38;;;8.35;;
11514;SDS011;5814;41.936;25.556;2023-04-24T07:32:55;9.45;;;8.55;;
11514;SDS011;5814;41.936;25.556;2023-04-24T07:35:22;7.60;;;7.00;;
11514;SDS011;5814;41.936;25.556;2023-04-24T07:37:49;7.43;;;6.93;;
11514;SDS011;5814;41.936;25.556;2023-04-24T07:40:16;8.10;;;7.70;;
11514;SDS011;5814;41.936;25.556;2023-04-24T07:42:43;14.00;;;8.93;;
11514;SDS011;5814;41.936;25.556;2023-04-24T07:45:10;11.90;;;10.82;;
11514;SDS011;5814;41.936;25.556;2023-04-24T07:47:38;9.10;;;8.40;;
11514;SDS011;5814;41.936;25.556;2023-04-24T07:50:05;7.62;;;7.03;;
11514;SDS011;5814;41.936;25.556;2023-04-24T07:52:32;9.25;;;8.55;;
11514;SDS011;5814;41.936;25.556;2023-04-24T07:54:59;9.30;;;8.63;;
11514;SDS011;5814;41.936;25.556;2023-04-24T07:57:27;9.15;;;8.65;;
11514;SDS011;5814;41.936;25.556;2023-04-24T07:59:54;9.55;;;8.80;;
11514;SDS011;5814;41.936;25.556;2023-04-24T08:02:21;10.88;;;8.85;;
11514;SDS011;5814;41.936;25.556;2023-04-24T08:04:49;9.95;;;9.35;;
11514;SDS011;5814;41.936;25.556;2023-04-24T08:07:16;9.80;;;9.02;;
11514;SDS011;5814;41.936;25.556;2023-04-24T08:09:43;10.18;;;8.05;;
11514;SDS011;5814;41.936;25.556;2023-04-24T08:12:11;8.55;;;8.00;;
11514;SDS011;5814;41.936;25.556;2023-04-24T08:14:38;7.97;;;7.45;;
11514;SDS011;5814;41.936;25.556;2023-04-24T08:17:06;9.13;;;8.38;;
11514;SDS011;5814;41.936;25.556;2023-04-24T08:19:33;10.40;;;9.52;;
11514;SDS011;5814;41.936;25.556;2023-04-24T08:22:00;8.18;;;7.65;;
11514;SDS011;5814;41.936;25.556;2023-04-24T08:24:27;8.98;;;8.40;;
11514;SDS011;5814;41.936;25.556;2023-04-24T08:26:54;9.35;;;8.52;;
11514;SDS011;5814;41.936;25.556;2023-04-24T08:29:21;10.30;;;9.40;;
11514;SDS011;5814;41.936;25.556;2023-04-24T08:31:49;8.13;;;7.43;;
11514;SDS011;5814;41.936;25.556;2023-04-24T08:34:16;8.63;;;7.78;;
11514;SDS011;5814;41.936;25.556;2023-04-24T08:36:43;9.00;;;7.87;;
11514;SDS011;5814;41.936;25.556;2023-04-24T08:39:10;7.62;;;6.93;;
11514;SDS011;5814;41.936;25.556;2023-04-24T08:41:37;6.87;;;6.45;;
11514;SDS011;5814;41.936;25.556;2023-04-24T08:44:04;8.23;;;7.55;;
11514;SDS011;5814;41.936;25.556;2023-04-24T08:46:32;7.85;;;7.22;;
11514;SDS011;5814;41.936;25.556;2023-04-24T08:48:59;7.47;;;7.07;;
11514;SDS011;5814;41.936;25.556;2023-04-24T08:51:26;7.62;;;7.12;;
11514;SDS011;5814;41.936;25.556;2023-04-24T08:53:53;12.55;;;8.65;;
11514;SDS011;5814;41.936;25.556;2023-04-24T08:56:21;7.25;;;6.68;;
11514;SDS011;5814;41.936;25.556;2023-04-24T08:58:47;6.97;;;6.57;;
11514;SDS011;5814;41.936;25.556;2023-04-24T09:01:15;7.62;;;6.93;;
11514;SDS011;5814;41.936;25.556;2023-04-24T09:03:42;7.65;;;7.05;;
11514;SDS011;5814;41.936;25.556;2023-04-24T09:06:09;7.05;;;6.57;;
11514;SDS011;5814;41.936;25.556;2023-04-24T09:08:36;6.95;;;6.45;;
11514;SDS011;5814;41.936;25.556;2023-04-24T09:11:03;9.35;;;8.73;;
11514;SDS011;5814;41.936;25.556;2023-04-24T09:13:30;7.68;;;7.07;;
11514;SDS011;5814;41.936;25.556;2023-04-24T09:15:58;7.35;;;6.75;;
11514;SDS011;5814;41.936;25.556;2023-04-24T09:18:25;7.60;;;7.10;;
11514;SDS011;5814;41.936;25.556;2023-04-24T09:21:01;7.10;;;6.50;;
11514;SDS011;5814;41.936;25.556;2023-04-24T09:23:28;7.05;;;6.55;;
11514;SDS011;5814;41.936;25.556;2023-04-24T09:25:55;7.07;;;6.55;;
11514;SDS011;5814;41.936;25.556;2023-04-24T09:28:53;7.50;;;6.97;;
11514;SDS011;5814;41.936;25.556;2023-04-24T09:31:04;6.85;;;6.50;;
11514;SDS011;5814;41.936;25.556;2023-04-24T09:33:33;6.95;;;6.35;;
11514;SDS011;5814;41.936;25.556;2023-04-24T09:36:00;7.65;;;6.95;;
11514;SDS011;5814;41.936;25.556;2023-04-24T09:38:34;7.78;;;7.25;;
11514;SDS011;5814;41.936;25.556;2023-04-24T09:41:03;7.07;;;6.57;;
11514;SDS011;5814;41.936;25.556;2023-04-24T09:43:30;7.03;;;6.62;;
11514;SDS011;5814;41.936;25.556;2023-04-24T09:45:57;7.43;;;6.82;;
11514;SDS011;5814;41.936;25.556;2023-04-24T09:48:30;7.32;;;6.70;;
11514;SDS011;5814;41.936;25.556;2023-04-24T09:50:57;6.40;;;6.00;;
11514;SDS011;5814;41.936;25.556;2023-04-24T09:53:25;6.30;;;5.90;;
11514;SDS011;5814;41.936;25.556;2023-04-24T09:55:52;7.30;;;6.72;;
11514;SDS011;5814;41.936;25.556;2023-04-24T09:58:24;8.35;;;6.50;;
11514;SDS011;5814;41.936;25.556;2023-04-24T10:00:53;6.28;;;5.70;;
11514;SDS011;5814;41.936;25.556;2023-04-24T10:03:20;8.32;;;5.85;;
11514;SDS011;5814;41.936;25.556;2023-04-24T10:05:47;7.22;;;6.75;;
11514;SDS011;5814;41.936;25.556;2023-04-24T10:08:14;6.25;;;5.75;;
11514;SDS011;5814;41.936;25.556;2023-04-24T10:10:42;6.40;;;5.80;;
11514;SDS011;5814;41.936;25.556;2023-04-24T10:13:09;6.00;;;5.68;;
11514;SDS011;5814;41.936;25.556;2023-04-24T10:15:36;6.90;;;6.20;;
11514;SDS011;5814;41.936;25.556;2023-04-24T10:18:04;6.80;;;6.40;;
11514;SDS011;5814;41.936;25.556;2023-04-24T10:20:32;6.85;;;6.32;;
11514;SDS011;5814;41.936;25.556;2023-04-24T10:22:59;7.12;;;6.53;;
11514;SDS011;5814;41.936;25.556;2023-04-24T10:25:27;6.35;;;5.95;;
11514;SDS011;5814;41.936;25.556;2023-04-24T10:27:54;6.12;;;5.75;;
11514;SDS011;5814;41.936;25.556;2023-04-24T10:30:23;7.05;;;6.45;;
11514;SDS011;5814;41.936;25.556;2023-04-24T10:32:50;7.40;;;6.30;;
11514;SDS011;5814;41.936;25.556;2023-04-24T10:35:18;6.75;;;6.25;;
11514;SDS011;5814;41.936;25.556;2023-04-24T10:37:46;6.93;;;6.22;;
11514;SDS011;5814;41.936;25.556;2023-04-24T10:40:16;7.97;;;6.32;;
11514;SDS011;5814;41.936;25.556;2023-04-24T10:42:43;6.53;;;6.03;;
11514;SDS011;5814;41.936;25.556;2023-04-24T10:45:19;6.85;;;6.30;;
11514;SDS011;5814;41.936;25.556;2023-04-24T10:47:53;6.78;;;6.28;;
11514;SDS011;5814;41.936;25.556;2023-04-24T10:53:12;6.70;;;6.20;;
11514;SDS011;5814;41.936;25.556;2023-04-24T10:55:42;6.72;;;6.18;;
11514;SDS011;5814;41.936;25.556;2023-04-24T10:58:08;7.03;;;6.40;;
11514;SDS011;5814;41.936;25.556;2023-04-24T11:00:36;7.15;;;6.65;;
11514;SDS011;5814;41.936;25.556;2023-04-24T11:03:04;6.12;;;5.72;;
11514;SDS011;5814;41.936;25.556;2023-04-24T11:08:22;6.07;;;5.68;;
11514;SDS011;5814;41.936;25.556;2023-04-24T11:10:55;6.70;;;6.30;;
11514;SDS011;5814;41.936;25.556;2023-04-24T11:13:21;6.12;;;5.72;;
11514;SDS011;5814;41.936;25.556;2023-04-24T11:16:20;6.90;;;6.30;;
11514;SDS011;5814;41.936;25.556;2023-04-24T11:18:37;6.10;;;5.68;;
11514;SDS011;5814;41.936;25.556;2023-04-24T11:21:10;6.28;;;5.78;;
11514;SDS011;5814;41.936;25.556;2023-04-24T11:23:36;6.65;;;6.15;;
11514;SDS011;5814;41.936;25.556;2023-04-24T11:26:10;6.93;;;6.25;;
11514;SDS011;5814;41.936;25.556;2023-04-24T11:28:37;7.55;;;6.82;;
11514;SDS011;5814;41.936;25.556;2023-04-24T11:31:41;6.78;;;6.07;;
11514;SDS011;5814;41.936;25.556;2023-04-24T11:33:57;6.15;;;5.75;;
11514;SDS011;5814;41.936;25.556;2023-04-24T11:36:24;6.72;;;6.20;;
11514;SDS011;5814;41.936;25.556;2023-04-24T11:38:51;5.90;;;5.40;;
11514;SDS011;5814;41.936;25.556;2023-04-24T11:41:19;10.35;;;9.52;;
11514;SDS011;5814;41.936;25.556;2023-04-24T11:43:46;6.25;;;5.75;;
11514;SDS011;5814;41.936;25.556;2023-04-24T11:46:16;6.25;;;5.75;;
11514;SDS011;5814;41.936;25.556;2023-04-24T11:48:44;6.10;;;5.70;;
11514;SDS011;5814;41.936;25.556;2023-04-24T11:51:07;5.97;;;5.50;;
11514;SDS011;5814;41.936;25.556;2023-04-24T11:53:35;7.10;;;6.50;;
11514;SDS011;5814;41.936;25.556;2023-04-24T11:56:03;6.20;;;5.80;;
11514;SDS011;5814;41.936;25.556;2023-04-24T11:58:34;6.55;;;6.03;;
11514;SDS011;5814;41.936;25.556;2023-04-24T12:01:02;6.47;;;5.75;;
11514;SDS011;5814;41.936;25.556;2023-04-24T12:03:30;7.62;;;6.30;;
11514;SDS011;5814;41.936;25.556;2023-04-24T12:08:33;7.22;;;6.57;;
11514;SDS011;5814;41.936;25.556;2023-04-24T12:11:00;6.12;;;5.68;;
11514;SDS011;5814;41.936;25.556;2023-04-24T12:13:28;6.20;;;5.78;;
11514;SDS011;5814;41.936;25.556;2023-04-24T12:15:56;6.68;;;5.82;;
11514;SDS011;5814;41.936;25.556;2023-04-24T12:18:23;6.60;;;6.20;;
11514;SDS011;5814;41.936;25.556;2023-04-24T12:20:50;7.87;;;5.90;;
11514;SDS011;5814;41.936;25.556;2023-04-24T12:23:33;6.70;;;6.20;;
11514;SDS011;5814;41.936;25.556;2023-04-24T12:26:00;6.87;;;6.20;;
11514;SDS011;5814;41.936;25.556;2023-04-24T12:28:34;6.87;;;6.20;;
11514;SDS011;5814;41.936;25.556;2023-04-24T12:30:53;6.25;;;5.75;;
11514;SDS011;5814;41.936;25.556;2023-04-24T12:33:21;6.60;;;6.10;;
11514;SDS011;5814;41.936;25.556;2023-04-24T12:35:48;6.50;;;5.90;;
11514;SDS011;5814;41.936;25.556;2023-04-24T12:38:15;6.57;;;5.97;;
11514;SDS011;5814;41.936;25.556;2023-04-24T12:40:43;6.90;;;6.45;;
11514;SDS011;5814;41.936;25.556;2023-04-24T12:43:13;6.62;;;6.22;;
11514;SDS011;5814;41.936;25.556;2023-04-24T12:45:40;6.18;;;5.53;;
11514;SDS011;5814;41.936;25.556;2023-04-24T12:48:07;7.30;;;6.25;;
11514;SDS011;5814;41.936;25.556;2023-04-24T12:50:34;6.85;;;6.35;;
11514;SDS011;5814;41.936;25.556;2023-04-24T12:53:01;6.15;;;5.75;;
11514;SDS011;5814;41.936;25.556;2023-04-24T12:55:28;6.18;;;5.78;;
11514;SDS011;5814;41.936;25.556;2023-04-24T12:57:55;6.68;;;6.12;;
11514;SDS011;5814;41.936;25.556;2023-04-24T13:00:23;6.20;;;5.80;;
11514;SDS011;5814;41.936;25.556;2023-04-24T13:02:50;7.03;;;6.35;;
11514;SDS011;5814;41.936;25.556;2023-04-24T13:05:17;6.53;;;6.10;;
11514;SDS011;5814;41.936;25.556;2023-04-24T13:07:44;7.20;;;6.50;;
11514;SDS011;5814;41.936;25.556;2023-04-24T13:10:11;8.95;;;6.55;;
11514;SDS011;5814;41.936;25.556;2023-04-24T13:12:39;7.25;;;6.53;;
11514;SDS011;5814;41.936;25.556;2023-04-24T13:15:06;6.45;;;5.95;;
11514;SDS011;5814;41.936;25.556;2023-04-24T13:17:34;5.78;;;5.47;;
11514;SDS011;5814;41.936;25.556;2023-04-24T13:20:01;5.85;;;5.45;;
11514;SDS011;5814;41.936;25.556;2023-04-24T13:22:29;6.20;;;5.60;;
11514;SDS011;5814;41.936;25.556;2023-04-24T13:24:56;7.12;;;6.55;;
11514;SDS011;5814;41.936;25.556;2023-04-24T13:27:23;6.78;;;6.30;;
11514;SDS011;5814;41.936;25.556;2023-04-24T13:29:50;7.60;;;7.10;;
11514;SDS011;5814;41.936;25.556;2023-04-24T13:32:17;7.10;;;6.65;;
11514;SDS011;5814;41.936;25.556;2023-04-24T13:34:45;7.05;;;6.65;;
11514;SDS011;5814;41.936;25.556;2023-04-24T13:37:12;7.32;;;6.87;;
11514;SDS011;5814;41.936;25.556;2023-04-24T13:39:39;7.57;;;6.82;;
11514;SDS011;5814;41.936;25.556;2023-04-24T13:42:06;6.93;;;6.43;;
11514;SDS011;5814;41.936;25.556;2023-04-24T13:44:33;7.28;;;6.78;;
11514;SDS011;5814;41.936;25.556;2023-04-24T13:47:00;7.43;;;6.90;;
11514;SDS011;5814;41.936;25.556;2023-04-24T13:49:27;6.75;;;6.25;;
11514;SDS011;5814;41.936;25.556;2023-04-24T13:51:55;8.38;;;6.10;;
11514;SDS011;5814;41.936;25.556;2023-04-24T13:54:22;6.18;;;5.72;;
11514;SDS011;5814;41.936;25.556;2023-04-24T13:56:49;7.07;;;6.47;;
11514;SDS011;5814;41.936;25.556;2023-04-24T13:59:16;5.60;;;5.30;;
11514;SDS011;5814;41.936;25.556;2023-04-24T14:01:43;5.55;;;5.10;;
11514;SDS011;5814;41.936;25.556;2023-04-24T14:04:10;5.25;;;4.85;;
11514;SDS011;5814;41.936;25.556;2023-04-24T14:06:38;6.00;;;4.93;;
11514;SDS011;5814;41.936;25.556;2023-04-24T14:09:05;5.50;;;5.20;;
11514;SDS011;5814;41.936;25.556;2023-04-24T14:11:32;5.20;;;4.90;;
11514;SDS011;5814;41.936;25.556;2023-04-24T14:13:59;5.15;;;4.85;;
11514;SDS011;5814;41.936;25.556;2023-04-24T14:16:26;6.03;;;5.55;;
11514;SDS011;5814;41.936;25.556;2023-04-24T14:18:53;5.18;;;4.87;;
11514;SDS011;5814;41.936;25.556;2023-04-24T14:21:21;5.40;;;5.20;;
11514;SDS011;5814;41.936;25.556;2023-04-24T14:23:48;5.97;;;5.53;;
11514;SDS011;5814;41.936;25.556;2023-04-24T14:26:15;5.40;;;5.10;;
11514;SDS011;5814;41.936;25.556;2023-04-24T14:28:42;5.45;;;5.00;;
11514;SDS011;5814;41.936;25.556;2023-04-24T14:31:09;5.53;;;5.15;;
11514;SDS011;5814;41.936;25.556;2023-04-24T14:33:36;5.50;;;5.25;;
11514;SDS011;5814;41.936;25.556;2023-04-24T14:36:04;6.05;;;5.65;;
11514;SDS011;5814;41.936;25.556;2023-04-24T14:38:31;6.62;;;6.03;;
11514;SDS011;5814;41.936;25.556;2023-04-24T14:40:58;5.72;;;5.32;;
11514;SDS011;5814;41.936;25.556;2023-04-24T14:43:25;5.37;;;5.18;;
11514;SDS011;5814;41.936;25.556;2023-04-24T14:45:52;6.40;;;6.00;;
11514;SDS011;5814;41.936;25.556;2023-04-24T14:48:20;6.07;;;5.50;;
11514;SDS011;5814;41.936;25.556;2023-04-24T14:50:47;6.65;;;6.22;;